Time;durP1;ratioP1;P1;durP2;ratioP2;P2;SDS_P1;SDS_P2;PMS_P1;PMS_P2;Temp;Humidity;BMP_temperature;BMP_pressure;BME280_temperature;BME280_humidity;BME280_pressure;Samples;Min_cycle;Max_cycle;Signal;HPM_P1;HPM_P2
2022/12/20 00:01:56;;;;;;;67.77;4.60;;;10.90;99.90;;;;;;5078566;28;20279;-86
2022/12/20 00:04:21;;;;;;;66.17;4.73;;;10.90;99.90;;;;;;5077903;28;20168;-86
2022/12/20 00:06:47;;;;;;;65.07;4.70;;;11.00;99.90;;;;;;5077436;28;20179;-86
2022/12/20 00:09:13;;;;;;;65.13;4.40;;;11.00;99.90;;;;;;5060246;28;20279;-86
2022/12/20 00:11:40;;;;;;;65.67;4.33;;;10.90;99.90;;;;;;5077568;28;20191;-86
2022/12/20 00:14:07;;;;;;;69.70;4.28;;;11.00;99.90;;;;;;5060150;28;20661;-85
2022/12/20 00:16:35;;;;;;;65.55;5.20;;;11.00;99.90;;;;;;5077635;28;20164;-86
2022/12/20 00:19:04;;;;;;;67.45;4.63;;;10.90;99.90;;;;;;5059718;28;20229;-86
2022/12/20 00:21:31;;;;;;;67.82;5.50;;;10.90;99.90;;;;;;5060634;28;20237;-85
2022/12/20 00:23:57;;;;;;;65.53;5.28;;;11.00;99.90;;;;;;5078329;28;20160;-85
2022/12/20 00:26:26;;;;;;;66.22;5.10;;;10.90;99.90;;;;;;5078765;28;20166;-86
2022/12/20 00:28:52;;;;;;;65.97;4.70;;;10.90;99.90;;;;;;5078019;28;20198;-86
2022/12/20 00:31:20;;;;;;;70.10;5.30;;;10.80;99.90;;;;;;5058891;28;20555;-86
2022/12/20 00:33:48;;;;;;;67.30;5.25;;;10.80;99.90;;;;;;5078071;28;20183;-87
2022/12/20 00:36:15;;;;;;;67.25;5.20;;;10.70;99.90;;;;;;5079403;28;20548;-87
2022/12/20 00:38:43;;;;;;;70.38;5.65;;;10.70;99.90;;;;;;5062438;28;20190;-87
2022/12/20 00:41:12;;;;;;;65.78;5.18;;;10.60;99.90;;;;;;5062105;28;20230;-86
2022/12/20 00:43:38;;;;;;;65.78;5.55;;;10.50;99.90;;;;;;5080738;28;20587;-87
2022/12/20 00:46:05;;;;;;;65.82;5.40;;;10.50;99.90;;;;;;5081311;28;20168;-86
2022/12/20 00:48:32;;;;;;;65.47;4.65;;;10.40;99.90;;;;;;5062214;28;20188;-86
2022/12/20 00:51:03;;;;;;;71.18;7.05;;;10.40;99.90;;;;;;5081294;28;20184;-86
2022/12/20 00:53:29;;;;;;;66.78;5.65;;;10.40;99.90;;;;;;5081026;28;20171;-86
2022/12/20 00:55:55;;;;;;;67.50;5.70;;;10.20;99.90;;;;;;5063184;28;20168;-86
2022/12/20 00:58:25;;;;;;;70.53;5.60;;;10.20;99.90;;;;;;5080767;28;20812;-86
2022/12/20 01:00:51;;;;;;;67.95;5.65;;;10.10;99.90;;;;;;5080872;28;20176;-86
2022/12/20 01:03:20;;;;;;;67.18;5.30;;;10.10;99.90;;;;;;5083707;28;20529;-86
2022/12/20 01:06:04;;;;;;;67.47;6.20;;;10.10;99.90;;;;;;5065988;28;20172;-86
2022/12/20 01:08:30;;;;;;;67.15;6.25;;;10.00;99.90;;;;;;5083883;28;20178;-86
2022/12/20 01:11:02;;;;;;;68.60;7.32;;;9.90;99.90;;;;;;5065952;28;20256;-86
2022/12/20 01:13:28;;;;;;;67.20;6.45;;;9.90;99.90;;;;;;5082454;28;20168;-86
2022/12/20 01:15:53;;;;;;;66.60;5.90;;;9.80;99.90;;;;;;5082888;28;20223;-86
2022/12/20 01:18:19;;;;;;;66.33;6.07;;;9.80;99.90;;;;;;5082847;28;20222;-86
2022/12/20 01:20:45;;;;;;;67.50;6.00;;;9.80;99.90;;;;;;5082370;28;20184;-86
2022/12/20 01:23:10;;;;;;;67.03;5.87;;;9.90;99.90;;;;;;5065069;28;20221;-86
2022/12/20 01:25:36;;;;;;;68.37;6.53;;;10.00;99.90;;;;;;5082991;28;20171;-86
2022/12/20 01:28:02;;;;;;;73.40;6.53;;;10.00;99.90;;;;;;5082207;28;20221;-86
2022/12/20 01:30:27;;;;;;;67.50;7.10;;;9.90;99.90;;;;;;5082661;28;20226;-86
2022/12/20 01:32:53;;;;;;;69.27;7.07;;;9.90;99.90;;;;;;5081382;28;20176;-85
2022/12/20 01:35:19;;;;;;;67.60;6.60;;;9.90;99.90;;;;;;5080742;28;20168;-85
2022/12/20 01:37:44;;;;;;;67.43;6.50;;;9.80;99.90;;;;;;5062762;28;20167;-86
2022/12/20 01:40:10;;;;;;;67.00;5.87;;;9.80;99.90;;;;;;5080909;28;20179;-85
2022/12/20 01:42:36;;;;;;;66.97;6.30;;;9.80;99.90;;;;;;5081347;28;20194;-86
2022/12/20 01:45:08;;;;;;;67.17;5.47;;;9.80;99.90;;;;;;5063775;28;20419;-86
2022/12/20 01:47:35;;;;;;;66.68;6.00;;;9.80;99.90;;;;;;5082080;28;20461;-86
2022/12/20 01:50:03;;;;;;;76.18;5.93;;;9.90;99.90;;;;;;5081686;28;20180;-86
2022/12/20 01:52:39;;;;;;;66.90;5.97;;;9.90;99.90;;;;;;5063050;28;20171;-86
2022/12/20 01:55:19;;;;;;;68.50;6.97;;;9.90;99.90;;;;;;5080764;28;20148;-86
2022/12/20 01:57:50;;;;;;;67.32;6.57;;;10.00;99.90;;;;;;5081046;28;20611;-86
2022/12/20 02:00:16;;;;;;;66.40;5.82;;;10.00;99.90;;;;;;5062519;28;20235;-86
2022/12/20 02:02:45;;;;;;;67.97;6.15;;;10.00;99.90;;;;;;5080539;28;20257;-84
2022/12/20 02:05:13;;;;;;;73.45;9.35;;;10.00;99.90;;;;;;5080633;28;20168;-85
2022/12/20 02:07:42;;;;;;;68.45;6.53;;;9.90;99.90;;;;;;5062254;28;20175;-86
2022/12/20 02:10:09;;;;;;;69.32;7.60;;;9.90;99.90;;;;;;5063346;28;20195;-86
2022/12/20 02:12:47;;;;;;;69.88;8.00;;;9.90;99.90;;;;;;5061815;28;20160;-84
2022/12/20 02:15:21;;;;;;;67.78;7.40;;;9.80;99.90;;;;;;5063520;28;20190;-85
2022/12/20 02:17:56;;;;;;;69.28;7.93;;;9.80;99.90;;;;;;5081138;28;20144;-85
2022/12/20 02:20:49;;;;;;;74.00;7.25;;;9.80;99.90;;;;;;5081198;28;20200;-86
2022/12/20 02:23:44;;;;;;;69.93;6.45;;;9.80;99.90;;;;;;5081826;28;20190;-86
2022/12/20 02:26:28;;;;;;;68.25;6.30;;;9.80;99.90;;;;;;5064637;28;20156;-86
2022/12/20 02:29:21;;;;;;;68.88;6.47;;;9.70;99.90;;;;;;5082489;28;20206;-86
2022/12/20 02:32:01;;;;;;;68.43;6.40;;;9.80;99.90;;;;;;5065099;28;20180;-86
2022/12/20 02:34:30;;;;;;;71.70;6.43;;;9.70;99.90;;;;;;5066746;28;20168;-86
2022/12/20 02:36:56;;;;;;;69.55;7.35;;;9.80;99.90;;;;;;5083083;28;20167;-86
2022/12/20 02:39:24;;;;;;;67.70;6.40;;;9.80;99.90;;;;;;5082736;28;20164;-86
2022/12/20 02:41:54;;;;;;;71.63;7.10;;;9.80;99.90;;;;;;5082758;28;20278;-85
2022/12/20 02:47:14;;;;;;;74.03;7.70;;;9.80;99.90;;;;;;5081264;28;20204;-85
2022/12/20 02:49:41;;;;;;;68.63;6.72;;;9.80;99.90;;;;;;5063668;28;20199;-85
2022/12/20 02:52:09;;;;;;;72.28;6.28;;;9.80;99.90;;;;;;5080595;28;20191;-85
2022/12/20 02:54:37;;;;;;;67.38;6.43;;;9.70;99.90;;;;;;5080228;28;20166;-84
2022/12/20 02:57:14;;;;;;;71.00;7.20;;;9.80;99.90;;;;;;5080994;28;20221;-86
2022/12/20 03:00:07;;;;;;;69.03;6.47;;;9.80;99.90;;;;;;5082066;28;20148;-86
2022/12/20 03:03:21;;;;;;;74.82;8.70;;;9.80;99.90;;;;;;5064022;28;20164;-86
2022/12/20 03:05:22;;;;;;;74.05;7.00;;;9.80;99.90;;;;;;5080784;28;20171;-86
2022/12/20 03:07:48;;;;;;;70.10;7.55;;;9.80;99.90;;;;;;5064618;28;20193;-86
2022/12/20 03:10:14;;;;;;;68.25;6.65;;;9.80;99.90;;;;;;5064049;28;20227;-86
2022/12/20 03:12:39;;;;;;;67.32;6.55;;;9.80;99.90;;;;;;5082590;28;20171;-86
2022/12/20 03:15:06;;;;;;;70.00;6.80;;;9.80;99.90;;;;;;5082651;28;20164;-85
2022/12/20 03:17:31;;;;;;;71.07;6.75;;;9.80;99.90;;;;;;5065302;28;20172;-86
2022/12/20 03:19:57;;;;;;;67.00;6.30;;;9.70;99.90;;;;;;5082911;28;20171;-86
2022/12/20 03:22:23;;;;;;;66.77;5.93;;;9.80;99.90;;;;;;5065595;28;20198;-86
2022/12/20 03:24:49;;;;;;;67.20;6.97;;;9.70;99.90;;;;;;5065200;28;20175;-86
2022/12/20 03:27:15;;;;;;;70.10;6.70;;;9.80;99.90;;;;;;5063865;28;20180;-86
2022/12/20 03:29:41;;;;;;;67.10;5.55;;;9.80;99.90;;;;;;5063710;28;20195;-86
2022/12/20 03:32:07;;;;;;;67.60;6.80;;;9.80;99.90;;;;;;5063853;28;20191;-86
2022/12/20 03:34:32;;;;;;;72.70;8.15;;;9.80;99.90;;;;;;5064091;28;20164;-86
2022/12/20 03:36:58;;;;;;;76.13;7.47;;;9.80;99.90;;;;;;5081792;28;20186;-86
2022/12/20 03:39:24;;;;;;;67.50;6.97;;;9.80;99.90;;;;;;5064241;28;20172;-86
2022/12/20 03:41:49;;;;;;;75.23;7.20;;;9.80;99.90;;;;;;5081565;28;20336;-85
2022/12/20 03:44:15;;;;;;;67.17;6.20;;;9.70;99.90;;;;;;5064075;28;20175;-85
2022/12/20 03:46:40;;;;;;;70.17;6.70;;;9.80;99.90;;;;;;5082047;28;20171;-85
2022/12/20 03:49:06;;;;;;;71.30;7.90;;;9.70;99.90;;;;;;5081340;28;20680;-85
2022/12/20 03:51:32;;;;;;;68.10;7.30;;;9.70;99.90;;;;;;5080982;28;20255;-85
2022/12/20 03:53:57;;;;;;;73.73;7.63;;;9.70;99.90;;;;;;5063126;28;20639;-86
2022/12/20 03:56:23;;;;;;;71.00;7.47;;;9.70;99.90;;;;;;5081616;28;20216;-86
2022/12/20 03:58:49;;;;;;;68.00;6.90;;;9.70;99.90;;;;;;5079488;28;20186;-85
2022/12/20 04:01:23;;;;;;;73.30;8.07;;;9.80;99.90;;;;;;5060641;28;20184;-86
2022/12/20 04:03:49;;;;;;;68.65;7.72;;;9.70;99.90;;;;;;5079728;28;20163;-86
2022/12/20 04:06:16;;;;;;;68.25;6.72;;;9.70;99.90;;;;;;5078454;28;20190;-86
2022/12/20 04:08:42;;;;;;;72.82;6.70;;;9.60;99.90;;;;;;5080309;28;20266;-86
2022/12/20 04:11:16;;;;;;;69.40;6.30;;;9.60;99.90;;;;;;5081442;28;20728;-86
2022/12/20 04:14:02;;;;;;;69.95;6.22;;;9.60;99.90;;;;;;5081461;28;20143;-86
2022/12/20 04:16:29;;;;;;;69.28;7.18;;;9.50;99.90;;;;;;5077895;28;20182;-86
2022/12/20 04:18:55;;;;;;;69.72;6.43;;;9.50;99.90;;;;;;5078469;28;20164;-87
2022/12/20 04:21:26;;;;;;;67.77;6.80;;;9.50;99.90;;;;;;5062852;28;20191;-87
2022/12/20 04:23:51;;;;;;;69.25;7.95;;;9.50;99.90;;;;;;5081976;28;20160;-86
2022/12/20 04:26:18;;;;;;;68.40;7.80;;;9.50;99.90;;;;;;5080128;28;20294;-86
2022/12/20 04:28:43;;;;;;;70.60;8.70;;;9.50;99.90;;;;;;5077504;28;20195;-86
2022/12/20 04:31:09;;;;;;;68.47;9.40;;;9.50;99.90;;;;;;5078009;28;20561;-87
2022/12/20 04:33:35;;;;;;;68.20;8.47;;;9.50;99.90;;;;;;5078729;28;20172;-86
2022/12/20 04:36:02;;;;;;;69.72;9.98;;;9.50;99.90;;;;;;5063577;28;20168;-86
2022/12/20 04:38:27;;;;;;;69.95;10.77;;;9.50;99.90;;;;;;5084935;28;20167;-86
2022/12/20 04:40:54;;;;;;;74.13;9.27;;;9.50;99.90;;;;;;5086230;28;20187;-87
2022/12/20 04:43:21;;;;;;;69.97;11.98;;;9.50;99.90;;;;;;5067499;28;20164;-86
2022/12/20 04:45:48;;;;;;;76.05;13.00;;;9.50;99.90;;;;;;5085249;28;20239;-86
2022/12/20 04:48:15;;;;;;;69.15;10.23;;;9.50;99.90;;;;;;5085329;28;20598;-86
2022/12/20 04:50:40;;;;;;;74.25;10.60;;;9.50;99.90;;;;;;5067341;28;20195;-86
2022/12/20 04:55:52;;;;;;;72.55;12.25;;;9.50;99.90;;;;;;5085891;28;20377;-86
2022/12/20 04:58:18;;;;;;;70.37;9.87;;;9.50;99.90;;;;;;5085543;28;20161;-86
2022/12/20 05:00:43;;;;;;;72.37;11.13;;;9.50;99.90;;;;;;5085842;28;20836;-86
2022/12/20 05:03:09;;;;;;;70.50;11.73;;;9.50;99.90;;;;;;5066356;28;20198;-86
2022/12/20 05:05:35;;;;;;;76.87;10.80;;;9.50;99.90;;;;;;5084335;28;20167;-86
2022/12/20 05:08:01;;;;;;;70.83;10.40;;;9.50;99.90;;;;;;5084619;28;20159;-86
2022/12/20 05:10:26;;;;;;;70.47;9.35;;;9.60;99.90;;;;;;5084177;28;20241;-86
2022/12/20 05:12:52;;;;;;;70.87;7.80;;;9.50;99.90;;;;;;5083947;28;20210;-86
2022/12/20 05:15:18;;;;;;;70.10;8.50;;;9.60;99.90;;;;;;5084089;28;20539;-86
2022/12/20 05:17:43;;;;;;;68.90;7.67;;;9.60;99.90;;;;;;5084663;28;20250;-86
2022/12/20 05:20:10;;;;;;;69.70;7.73;;;9.70;99.90;;;;;;5084207;28;20170;-85
2022/12/20 05:28:04;;;;;;;72.05;8.40;;;9.70;99.90;;;;;;5083756;28;20213;-86
2022/12/20 05:30:29;;;;;;;70.77;7.20;;;9.70;99.90;;;;;;5083180;28;20204;-85
2022/12/20 05:33:28;;;;;;;69.13;7.23;;;9.70;99.90;;;;;;5142958;22;21002;-88
2022/12/20 05:36:20;;;;;;;68.57;6.72;;;9.60;99.90;;;;;;5032406;28;20234;-88
2022/12/20 05:38:49;;;;;;;70.30;7.95;;;9.50;99.90;;;;;;5055666;28;20173;-88
2022/12/20 05:41:22;;;;;;;70.85;6.50;;;9.50;99.90;;;;;;5037426;28;20216;-88
2022/12/20 05:44:00;;;;;;;70.35;6.90;;;9.50;99.90;;;;;;5037501;28;20173;-88
2022/12/20 05:46:35;;;;;;;71.82;6.88;;;9.40;99.90;;;;;;5037559;28;20176;-87
2022/12/20 05:49:01;;;;;;;70.03;7.65;;;9.30;99.90;;;;;;5035932;28;20256;-87
2022/12/20 05:51:30;;;;;;;71.00;7.50;;;9.20;99.90;;;;;;5037347;28;20671;-87
2022/12/20 05:54:11;;;;;;;69.63;6.82;;;9.10;99.90;;;;;;5055402;28;20553;-87
2022/12/20 05:56:39;;;;;;;69.70;8.88;;;9.20;99.90;;;;;;5035216;28;20560;-87
2022/12/20 05:59:28;;;;;;;69.95;9.05;;;9.10;99.90;;;;;;5037293;28;20165;-87
2022/12/20 06:02:09;;;;;;;70.97;9.95;;;9.20;99.90;;;;;;5030929;28;20196;-88
2022/12/20 06:04:37;;;;;;;70.55;10.55;;;9.20;99.90;;;;;;5038354;28;20176;-88
2022/12/20 06:10:21;;;;;;;70.07;9.30;;;9.20;99.90;;;;;;5055018;28;20195;-87
2022/12/20 06:13:03;;;;;;;69.75;6.53;;;9.20;99.90;;;;;;5031100;28;20177;-88
2022/12/20 06:15:40;;;;;;;73.78;9.32;;;9.20;99.90;;;;;;5037698;28;20180;-87
2022/12/20 06:18:20;;;;;;;71.38;7.95;;;9.10;99.90;;;;;;5037080;28;20532;-88
2022/12/20 06:21:27;;;;;;;71.72;8.02;;;9.10;99.90;;;;;;5041858;23;20698;-88
2022/12/20 06:24:05;;;;;;;69.80;7.13;;;9.10;99.90;;;;;;5037084;28;20659;-87
2022/12/20 06:26:41;;;;;;;71.18;6.95;;;9.10;99.90;;;;;;5054735;28;20152;-88
2022/12/20 06:29:48;;;;;;;70.47;8.48;;;9.10;99.90;;;;;;5037125;28;20228;-88
2022/12/20 06:32:13;;;;;;;73.00;9.20;;;9.00;99.90;;;;;;5036903;28;20265;-88
2022/12/20 06:34:56;;;;;;;70.73;10.20;;;8.90;99.90;;;;;;5037227;28;20193;-88
2022/12/20 06:37:50;;;;;;;72.05;10.35;;;8.90;99.90;;;;;;5054628;28;20202;-88
2022/12/20 06:41:19;;;;;;;70.45;10.75;;;8.80;99.90;;;;;;5036805;28;20655;-88
2022/12/20 06:43:59;;;;;;;71.25;11.70;;;8.90;99.90;;;;;;5043439;28;20172;-87
2022/12/20 06:46:38;;;;;;;71.35;11.55;;;8.90;99.90;;;;;;4957634;28;20180;-88
2022/12/20 06:49:10;;;;;;;73.35;10.38;;;8.90;99.90;;;;;;5054643;28;20180;-88
2022/12/20 06:51:45;;;;;;;81.38;13.20;;;9.00;99.90;;;;;;5036426;28;20328;-87
2022/12/20 06:54:17;;;;;;;71.45;11.80;;;9.00;99.90;;;;;;5054278;28;20167;-87
2022/12/20 06:56:43;;;;;;;71.07;9.80;;;9.00;99.90;;;;;;5054901;28;20164;-88
2022/12/20 06:59:09;;;;;;;74.28;11.00;;;8.90;99.90;;;;;;5035993;28;20230;-88
2022/12/20 07:01:55;;;;;;;70.43;9.00;;;8.90;99.90;;;;;;5053941;28;20623;-88
2022/12/20 07:04:30;;;;;;;75.82;10.80;;;8.90;99.90;;;;;;5036105;28;20886;-88
2022/12/20 07:07:40;;;;;;;70.18;10.70;;;8.80;99.90;;;;;;5036084;28;20202;-88
2022/12/20 07:10:12;;;;;;;70.55;9.40;;;8.80;99.90;;;;;;5033737;28;20203;-88
2022/12/20 07:12:39;;;;;;;70.15;8.73;;;8.80;99.90;;;;;;5053699;28;20153;-88
2022/12/20 07:15:09;;;;;;;72.55;7.55;;;8.80;99.90;;;;;;5036254;28;20572;-87
2022/12/20 07:17:37;;;;;;;72.40;9.00;;;8.70;99.90;;;;;;5053958;28;20222;-87
2022/12/20 07:20:34;;;;;;;;;;;;;;;;;;;;;
2022/12/20 07:26:29;;;;;;;69.88;7.97;;;8.70;99.90;;;;;;5053227;28;20183;-89
2022/12/20 07:29:38;;;;;;;76.82;8.25;;;8.60;99.90;;;;;;5032891;28;20280;-88
2022/12/20 07:32:24;;;;;;;69.65;8.35;;;8.70;99.90;;;;;;5188455;23;20224;-88
2022/12/20 07:35:06;;;;;;;71.22;8.93;;;8.60;99.90;;;;;;5056147;28;20164;-88
2022/12/20 07:37:56;;;;;;;75.13;9.27;;;8.60;99.90;;;;;;5055560;28;20234;-88
2022/12/20 07:41:03;;;;;;;;;;;;;;;;;;;;;
2022/12/20 07:44:03;;;;;;;;;;;;;;;;;;;;;
2022/12/20 07:47:25;;;;;;;71.50;10.98;;;8.70;99.90;;;;;;5063791;28;20182;-88
2022/12/20 07:49:48;;;;;;;70.15;9.10;;;8.70;99.90;;;;;;5066277;28;20569;-88
2022/12/20 07:52:43;;;;;;;73.15;10.43;;;8.70;99.90;;;;;;5030979;28;20225;-88
2022/12/20 07:55:38;;;;;;;;;;;;;;;;;;;;;
2022/12/20 07:58:43;;;;;;;72.65;11.10;;;8.60;99.90;;;;;;5074071;28;20175;-88
2022/12/20 08:05:29;;;;;;;71.15;10.77;;;8.60;99.90;;;;;;4981665;28;20171;-89
2022/12/20 08:08:01;;;;;;;74.45;10.48;;;8.70;99.90;;;;;;5056101;28;20159;-88
2022/12/20 08:11:05;;;;;;;75.25;13.15;;;8.60;99.90;;;;;;5048177;28;20215;-88
2022/12/20 08:16:51;;;;;;;70.28;9.80;;;8.60;99.90;;;;;;5078009;28;20175;-88
2022/12/20 08:19:36;;;;;;;71.38;12.40;;;8.60;99.90;;;;;;5059505;28;20213;-88
2022/12/20 08:25:26;;;;;;;74.10;12.85;;;8.60;99.90;;;;;;5077302;28;20246;-88
2022/12/20 08:28:26;;;;;;;73.28;11.13;;;8.70;99.90;;;;;;5059264;28;20174;-88
2022/12/20 08:31:50;;;;;;;71.88;9.15;;;8.80;99.90;;;;;;5071903;23;20284;-88
2022/12/20 08:34:37;;;;;;;72.18;8.15;;;8.80;99.90;;;;;;5022585;28;20176;-88
2022/12/20 08:37:21;;;;;;;69.25;8.07;;;8.80;99.90;;;;;;5076970;28;20168;-88
2022/12/20 08:40:26;;;;;;;70.70;7.85;;;8.90;99.90;;;;;;5059065;28;20164;-88
2022/12/20 08:43:26;;;;;;;69.63;6.65;;;9.00;99.90;;;;;;5039018;28;20163;-88
2022/12/20 08:46:05;;;;;;;67.60;6.70;;;9.00;99.90;;;;;;5056859;28;20173;-88
2022/12/20 08:48:37;;;;;;;71.18;6.95;;;9.10;99.90;;;;;;5038457;28;20172;-88
2022/12/20 08:51:20;;;;;;;69.20;5.53;;;9.20;99.90;;;;;;5056986;28;20590;-88
2022/12/20 08:54:07;;;;;;;;;;;;;;;;;;;;;
2022/12/20 08:56:58;;;;;;;67.53;5.50;;;9.30;99.90;;;;;;5056991;28;20167;-88
2022/12/20 09:00:03;;;;;;;70.75;8.65;;;9.40;99.90;;;;;;5038425;28;20601;-88
2022/12/20 09:02:41;;;;;;;67.80;6.97;;;9.50;99.90;;;;;;5038664;28;20226;-88
2022/12/20 09:05:19;;;;;;;66.90;5.88;;;9.60;99.90;;;;;;5057155;28;20208;-88
2022/12/20 09:08:13;;;;;;;66.63;5.35;;;9.70;99.90;;;;;;5056461;28;20172;-88
2022/12/20 09:11:04;;;;;;;;;;;;;;;;;;;;;
2022/12/20 09:13:52;;;;;;;67.15;5.53;;;9.80;99.90;;;;;;5056964;28;20173;-88
2022/12/20 09:16:39;;;;;;;66.50;5.28;;;9.90;99.90;;;;;;5036591;28;20177;-88
2022/12/20 09:19:37;;;;;;;68.00;5.60;;;10.00;99.90;;;;;;5038104;28;20222;-88
2022/12/20 09:22:27;;;;;;;68.38;5.80;;;10.00;99.90;;;;;;5038390;28;20184;-88
2022/12/20 09:25:10;;;;;;;70.95;6.18;;;10.00;99.90;;;;;;5038555;28;20183;-88
2022/12/20 09:27:58;;;;;;;;;;;;;;;;;;;;;
2022/12/20 09:30:46;;;;;;;73.30;7.20;;;10.10;99.90;;;;;;5056261;28;20204;-88
2022/12/20 09:33:24;;;;;;;70.30;6.57;;;10.10;99.90;;;;;;5037194;28;20192;-88
2022/12/20 09:36:22;;;;;;;69.20;6.05;;;10.10;99.90;;;;;;5038458;28;20181;-88
2022/12/20 09:38:53;;;;;;;68.47;6.30;;;10.10;99.90;;;;;;5055602;28;20183;-87
2022/12/20 09:41:25;;;;;;;68.00;5.97;;;10.20;99.90;;;;;;5052700;23;20224;-87
2022/12/20 09:43:56;;;;;;;66.68;5.78;;;10.20;99.90;;;;;;5057790;28;20160;-87
2022/12/20 09:46:26;;;;;;;69.13;6.10;;;10.20;99.90;;;;;;5058254;28;20723;-87
2022/12/20 09:48:52;;;;;;;69.75;5.63;;;10.20;99.90;;;;;;5075892;28;20206;-86
2022/12/20 09:51:56;;;;;;;67.97;6.18;;;10.30;99.90;;;;;;5057576;28;20188;-86
2022/12/20 09:54:27;;;;;;;67.82;6.22;;;10.30;99.90;;;;;;5057486;28;20634;-86
2022/12/20 09:57:16;;;;;;;68.43;6.10;;;10.30;99.90;;;;;;5075489;28;20277;-86
2022/12/20 09:59:43;;;;;;;67.70;5.93;;;10.40;99.90;;;;;;5075673;28;20153;-86
2022/12/20 10:02:11;;;;;;;65.45;5.07;;;10.40;99.90;;;;;;5075268;28;20184;-86
2022/12/20 10:04:38;;;;;;;66.90;5.28;;;10.50;99.90;;;;;;5075479;28;20175;-86
2022/12/20 10:07:14;;;;;;;67.72;5.40;;;10.50;99.90;;;;;;5075476;28;20167;-86
2022/12/20 10:09:57;;;;;;;66.75;5.45;;;10.50;99.90;;;;;;5075505;28;20179;-86
2022/12/20 10:12:41;;;;;;;65.10;5.10;;;10.60;99.90;;;;;;5075789;28;20260;-86
2022/12/20 10:15:27;;;;;;;67.07;5.38;;;10.60;99.90;;;;;;5057486;28;20164;-86
2022/12/20 10:18:11;;;;;;;68.57;6.20;;;10.60;99.90;;;;;;5057525;28;20159;-87
2022/12/20 10:21:20;;;;;;;71.07;6.47;;;10.60;99.90;;;;;;5075437;28;20191;-87
2022/12/20 10:24:00;;;;;;;66.10;5.28;;;10.70;99.90;;;;;;5053248;28;20555;-86
2022/12/20 10:26:26;;;;;;;66.55;5.93;;;10.60;99.90;;;;;;5057309;28;20531;-87
2022/12/20 10:28:52;;;;;;;67.35;6.25;;;10.70;99.90;;;;;;5075279;28;20188;-87
2022/12/20 10:31:18;;;;;;;69.93;5.60;;;10.70;99.90;;;;;;5057263;28;20313;-87
2022/12/20 10:33:44;;;;;;;67.20;6.22;;;10.80;99.90;;;;;;5056769;28;20164;-87
2022/12/20 10:36:33;;;;;;;68.07;5.80;;;10.80;99.90;;;;;;5057214;28;20306;-87
2022/12/20 10:39:05;;;;;;;67.10;6.05;;;10.80;99.90;;;;;;5075247;28;20155;-87
2022/12/20 10:41:43;;;;;;;66.03;5.60;;;10.80;99.90;;;;;;5075173;28;20207;-87
2022/12/20 10:44:29;;;;;;;66.47;6.05;;;10.80;99.90;;;;;;5057530;28;20164;-87
2022/12/20 10:47:37;;;;;;;66.95;6.22;;;10.80;99.90;;;;;;5075100;28;20155;-87
2022/12/20 10:50:14;;;;;;;66.07;5.90;;;10.90;99.90;;;;;;5075380;28;20194;-88
2022/12/20 10:52:41;;;;;;;66.47;6.22;;;10.90;99.90;;;;;;5057943;28;20156;-87
2022/12/20 10:55:37;;;;;;;66.00;5.35;;;11.00;99.90;;;;;;5075057;28;20164;-87
2022/12/20 10:58:31;;;;;;;67.95;6.13;;;11.00;99.90;;;;;;5057343;28;20163;-87
2022/12/20 11:01:14;;;;;;;67.10;6.03;;;11.00;99.90;;;;;;5074938;28;20176;-87
2022/12/20 11:04:02;;;;;;;66.07;5.68;;;10.90;99.90;;;;;;5075360;28;20144;-87
2022/12/20 11:06:36;;;;;;;69.13;6.20;;;11.00;99.90;;;;;;5057437;28;20513;-87
2022/12/20 11:09:23;;;;;;;66.30;5.43;;;11.00;99.90;;;;;;5075640;28;20179;-87
2022/12/20 11:11:58;;;;;;;66.63;5.28;;;11.00;99.90;;;;;;5057374;28;20590;-87
2022/12/20 11:14:24;;;;;;;71.57;5.85;;;11.00;99.90;;;;;;5057772;28;20194;-87
2022/12/20 11:16:54;;;;;;;68.87;6.07;;;11.00;99.90;;;;;;5075133;28;20156;-87
2022/12/20 11:19:25;;;;;;;66.82;6.43;;;11.00;99.90;;;;;;5057874;28;20159;-87
2022/12/20 11:22:28;;;;;;;70.60;5.63;;;11.00;99.90;;;;;;5075258;28;20191;-87
2022/12/20 11:25:16;;;;;;;69.85;5.40;;;10.90;99.90;;;;;;5057041;28;20253;-87
2022/12/20 11:27:51;;;;;;;68.88;5.80;;;10.90;99.90;;;;;;5056289;28;20160;-87
2022/12/20 11:30:28;;;;;;;65.57;5.50;;;10.90;99.90;;;;;;5073927;28;20187;-88
2022/12/20 11:33:12;;;;;;;70.95;7.18;;;10.90;99.90;;;;;;5138667;23;21457;-86
2022/12/20 11:36:05;;;;;;;67.97;5.65;;;10.90;99.90;;;;;;5039923;28;20350;-85
2022/12/20 11:38:42;;;;;;;68.75;6.10;;;10.90;99.90;;;;;;5039660;28;20150;-85
2022/12/20 11:41:22;;;;;;;66.95;5.82;;;10.90;99.90;;;;;;5048542;28;20191;-86
2022/12/20 11:44:09;;;;;;;68.25;5.88;;;10.90;99.90;;;;;;5059209;28;20149;-86
2022/12/20 11:47:16;;;;;;;67.13;5.75;;;10.90;99.90;;;;;;5038639;28;20670;-85
2022/12/20 11:50:07;;;;;;;66.88;6.20;;;10.90;99.90;;;;;;5034996;28;20291;-85
2022/12/20 11:52:45;;;;;;;69.32;5.70;;;10.90;99.90;;;;;;5039407;28;20152;-85
2022/12/20 11:55:21;;;;;;;67.45;6.65;;;10.90;99.90;;;;;;5057332;28;20156;-85
2022/12/20 11:57:58;;;;;;;68.03;6.25;;;10.90;99.90;;;;;;5057677;28;20145;-86
2022/12/20 12:00:25;;;;;;;69.68;5.60;;;10.90;99.90;;;;;;5040029;28;20188;-85
2022/12/20 12:03:00;;;;;;;68.47;6.30;;;10.80;99.90;;;;;;5058504;28;20160;-86
2022/12/20 12:05:39;;;;;;;68.18;5.90;;;10.80;99.90;;;;;;5058985;28;20184;-85
2022/12/20 12:08:12;;;;;;;68.90;5.65;;;10.80;99.90;;;;;;5057985;28;20156;-85
2022/12/20 12:10:42;;;;;;;66.43;5.95;;;10.90;99.90;;;;;;5039227;28;20211;-85
2022/12/20 12:13:19;;;;;;;65.97;4.88;;;11.00;99.90;;;;;;5039687;28;20168;-86
2022/12/20 12:15:47;;;;;;;67.78;5.10;;;11.10;99.90;;;;;;5057625;28;20175;-86
2022/12/20 12:18:20;;;;;;;66.00;4.45;;;11.30;99.90;;;;;;5057484;28;20252;-86
2022/12/20 12:21:07;;;;;;;65.28;4.40;;;11.40;99.90;;;;;;5038602;28;20664;-86
2022/12/20 12:23:48;;;;;;;66.47;5.07;;;11.40;99.90;;;;;;5039819;28;20219;-86
2022/12/20 12:26:40;;;;;;;68.72;5.75;;;11.40;99.90;;;;;;5057806;28;20163;-86
2022/12/20 12:29:12;;;;;;;66.60;6.32;;;11.50;99.90;;;;;;5052945;28;20287;-86
2022/12/20 12:32:03;;;;;;;65.82;5.43;;;11.50;99.90;;;;;;5055619;28;20721;-86
2022/12/20 12:35:03;;;;;;;70.30;5.72;;;11.50;99.90;;;;;;5057259;28;20181;-86
2022/12/20 12:38:08;;;;;;;66.38;5.18;;;11.50;99.90;;;;;;5059472;28;20164;-86
2022/12/20 12:41:03;;;;;;;67.45;5.15;;;11.40;99.90;;;;;;5022955;28;20203;-86
2022/12/20 12:43:53;;;;;;;69.70;6.18;;;11.40;99.90;;;;;;5044229;28;20175;-85
2022/12/20 12:46:50;;;;;;;66.22;5.38;;;11.50;99.90;;;;;;5052659;28;20644;-84
2022/12/20 12:49:23;;;;;;;66.50;5.28;;;11.50;99.90;;;;;;5040565;28;20235;-84
2022/12/20 12:51:52;;;;;;;68.90;5.28;;;11.50;99.90;;;;;;5043044;28;20188;-85
2022/12/20 12:54:22;;;;;;;69.15;5.90;;;11.50;99.90;;;;;;5040489;28;20657;-84
2022/12/20 12:56:50;;;;;;;65.78;6.35;;;11.40;99.90;;;;;;5059722;28;20601;-86
2022/12/20 12:59:24;;;;;;;64.97;5.35;;;11.40;99.90;;;;;;5044983;28;20242;-85
2022/12/20 13:02:16;;;;;;;67.95;5.22;;;11.40;99.90;;;;;;5061911;28;20694;-85
2022/12/20 13:05:20;;;;;;;69.55;5.10;;;11.40;99.90;;;;;;5044283;28;20168;-85
2022/12/20 13:07:45;;;;;;;66.43;5.57;;;11.30;99.90;;;;;;5044954;28;20173;-86
2022/12/20 13:10:17;;;;;;;66.20;5.37;;;11.40;99.90;;;;;;5045217;28;20243;-86
2022/12/20 13:12:56;;;;;;;67.15;6.28;;;11.40;99.90;;;;;;5045201;28;20482;-86
2022/12/20 13:15:21;;;;;;;65.88;5.78;;;11.40;99.90;;;;;;5063621;28;20155;-86
2022/12/20 13:17:58;;;;;;;67.23;5.90;;;11.40;99.90;;;;;;5046082;28;20172;-86
2022/12/20 13:20:34;;;;;;;65.90;5.88;;;11.40;99.90;;;;;;5045465;28;20430;-86
2022/12/20 13:23:07;;;;;;;67.03;6.65;;;11.40;99.90;;;;;;5045780;28;20163;-86
2022/12/20 13:25:38;;;;;;;68.10;5.63;;;11.30;99.90;;;;;;5063932;28;20169;-86
2022/12/20 13:28:22;;;;;;;66.25;5.80;;;11.30;99.90;;;;;;5045568;28;20612;-86
2022/12/20 13:30:59;;;;;;;67.10;6.97;;;11.30;99.90;;;;;;5063257;28;20207;-86
2022/12/20 13:33:45;;;;;;;67.05;6.70;;;11.30;99.90;;;;;;5063424;28;20595;-86
2022/12/20 13:36:10;;;;;;;68.03;6.28;;;11.30;99.90;;;;;;5062562;28;20168;-86
2022/12/20 13:38:50;;;;;;;70.83;6.00;;;11.30;99.90;;;;;;5063816;28;20255;-86
2022/12/20 13:41:29;;;;;;;66.47;5.63;;;11.30;99.90;;;;;;5045310;28;20185;-86
2022/12/20 13:43:57;;;;;;;68.40;5.10;;;11.30;99.90;;;;;;5045427;28;20156;-86
2022/12/20 13:46:46;;;;;;;65.38;4.50;;;11.40;99.90;;;;;;5061057;28;20160;-86
2022/12/20 13:49:26;;;;;;;67.60;5.70;;;11.40;99.90;;;;;;5061579;28;20200;-86
2022/12/20 13:52:10;;;;;;;67.05;4.97;;;11.40;99.90;;;;;;5061442;28;20243;-86
2022/12/20 13:54:44;;;;;;;67.03;5.95;;;11.50;99.90;;;;;;5060570;28;20161;-85
2022/12/20 13:57:29;;;;;;;66.18;5.13;;;11.50;99.90;;;;;;5042181;28;20250;-86
2022/12/20 13:59:58;;;;;;;65.30;4.43;;;11.70;99.90;;;;;;5042288;28;20624;-86
2022/12/20 14:02:29;;;;;;;66.20;5.18;;;11.70;99.90;;;;;;5059603;28;20683;-86
2022/12/20 14:05:09;;;;;;;65.53;5.13;;;11.70;99.90;;;;;;5059638;28;20157;-86